الصفحة الرئيسية
METAR-TAF:

METAR-TAF

مطار :

ديمينغ, نيومكسيكو, الولايات المتحدة

دائرة عرض: 32-15-44N, خط طول: 107-43-14W, ارتفاع: 1315 متر

مراقبة الطقس الحالي

تاريخ ووقت الإصدار 38 دقيقة قبل الساعة 20:53UTC
ريح 13 عقدة من الشرق/الجنوب الشرقي تتزايد حتى 20 عقدة
درجة الحرارة 18°درجة مئوية
الرطوبة 24%
ضغط 1021 hPa
الرؤية: 16.1 كم
سماء صافية

METAR: KDMN 182053Z AUTO 12013G20KT 10SM CLR 18/M03 A3015 RMK AO2 SLP173 T01781033 58022

زمن: 15:31 (21:31 UTC)

توقعات

تاريخ ووقت الإصدار 4ساعات و 11 دقيقة قبل الساعة 17:20UTC
التوقعات صالحة من18 الساعة 18 UTC إلى 19 الساعة 18 UTC
ريح 11 عقدة من الشرق/الجنوب الشرقي
الرؤية: 10 كم
غيوم قليلة على ارتفاع 9000 قدم
من 19 الساعة 0200 UTC
ريح 6 عقدة من الشرق/الشمال الشرقي
الرؤية: 10 كم
سماء صافية

TAF: KDMN 181720Z 1818/1918 12011KT P6SM FEW090 FM190200 06006KT P6SM SKC

أرصاد الطقس والتوقعات من أكثر من 4000 مطار (تقارير الطقس للمطار METAR والتنبؤ بالطقس بالمطارTAF).

المحطات المتاحة هي النقط الصفراء والحمراء على الخريطة.

حرك المؤشر فوق النقطة لمعرفة اسم المحطة.

ثم انقر لمعرفة أرصاد وتوقعات الطقس.

لتغيير الخارطة: اضغط على الأزرار الخضراء مع رمز الصليب الأسود للتكبير. على الزر الأخضر مع شرطة للتصغير، أو على الأسهم الخضراء للخرائط المجاورة.


METAR-TAF: